createdAt,value
2018-09-08T00:00:46.406Z,82.76
2018-09-08T00:01:46.390Z,83.29
2018-09-08T00:02:46.352Z,83.39
2018-09-08T00:03:46.321Z,83.72
2018-09-08T00:04:46.317Z,83.58
2018-09-08T00:05:46.255Z,83.48
2018-09-08T00:06:46.238Z,85.11
2018-09-08T00:07:46.208Z,84.44
2018-09-08T00:08:46.178Z,83.39
2018-09-08T00:09:46.149Z,85.01
2018-09-08T00:10:46.126Z,84.72
2018-09-08T00:11:46.098Z,83.77
2018-09-08T00:12:46.069Z,83.48
2018-09-08T00:13:46.047Z,83.11
2018-09-08T00:14:46.019Z,83.77
2018-09-08T00:15:45.995Z,84.29
2018-09-08T00:16:45.968Z,83.62
2018-09-08T00:17:45.956Z,83.62
2018-09-08T00:18:45.910Z,83.96
2018-09-08T00:19:45.886Z,84.77
2018-09-08T00:20:45.868Z,83.53
2018-09-08T00:21:45.841Z,83.72
2018-09-08T00:22:45.863Z,84.00
2018-09-08T00:23:45.788Z,83.39
2018-09-08T00:24:45.761Z,82.53
2018-09-08T00:25:45.729Z,82.91
2018-09-08T00:26:45.711Z,82.86
2018-09-08T00:27:45.683Z,83.53
2018-09-08T00:28:45.647Z,83.14
2018-09-08T00:29:45.626Z,82.34
2018-09-08T00:30:45.601Z,83.39
2018-09-08T00:31:45.572Z,82.34
2018-09-08T00:32:45.552Z,83.67
2018-09-08T00:33:45.527Z,83.11
2018-09-08T00:34:45.494Z,82.82
2018-09-08T00:35:45.468Z,82.82
2018-09-08T00:36:45.447Z,82.63
2018-09-08T00:37:45.412Z,83.20
2018-09-08T00:38:45.395Z,82.53
2018-09-08T00:39:45.367Z,82.24
2018-09-08T00:40:45.334Z,82.24
2018-09-08T00:41:45.319Z,82.06
2018-09-08T00:42:45.283Z,82.06
2018-09-08T00:43:45.260Z,82.06
2018-09-08T00:44:45.231Z,81.20
2018-09-08T00:45:45.212Z,81.67
2018-09-08T00:46:45.177Z,82.15
2018-09-08T00:47:45.153Z,81.86
2018-09-08T00:48:45.129Z,80.81
2018-09-08T00:49:45.099Z,81.48
2018-09-08T00:50:45.078Z,80.72
2018-09-08T00:51:45.046Z,81.10
2018-09-08T00:52:45.024Z,80.72
2018-09-08T00:53:44.996Z,80.53
2018-09-08T00:54:44.971Z,80.81
2018-09-08T00:55:44.945Z,80.43
2018-09-08T00:56:44.927Z,80.53
2018-09-08T00:57:44.895Z,80.53
2018-09-08T00:58:44.863Z,79.67
2018-09-08T00:59:44.836Z,79.19
2018-09-08T01:00:44.814Z,79.10
2018-09-08T01:01:44.783Z,78.43
2018-09-08T01:02:44.761Z,79.77
2018-09-08T01:03:44.761Z,79.38
2018-09-08T01:04:44.705Z,79.28
2018-09-08T01:05:44.694Z,79.57
2018-09-08T01:06:44.654Z,79.19
2018-09-08T01:07:44.630Z,79.19
2018-09-08T01:08:44.599Z,79.28
2018-09-08T01:09:44.571Z,79.57
2018-09-08T01:10:44.547Z,79.77
2018-09-08T01:11:44.522Z,79.48
2018-09-08T01:12:44.498Z,79.96
2018-09-08T01:13:44.477Z,79.96
2018-09-08T01:14:44.440Z,80.72
2018-09-08T01:15:44.420Z,79.77
2018-09-08T01:16:44.395Z,79.28
2018-09-08T01:17:44.368Z,79.48
2018-09-08T01:18:44.338Z,78.43
2018-09-08T01:19:44.315Z,78.52
2018-09-08T01:20:44.286Z,79.28
2018-09-08T01:21:44.259Z,78.23
2018-09-08T01:22:44.235Z,78.52
2018-09-08T01:23:44.214Z,78.81
2018-09-08T01:24:44.177Z,78.43
2018-09-08T01:25:44.162Z,78.43
2018-09-08T01:26:44.125Z,78.52
2018-09-08T01:27:44.100Z,77.67
2018-09-08T01:28:44.081Z,78.52
2018-09-08T01:29:44.049Z,77.95
2018-09-08T01:30:44.031Z,78.43
2018-09-08T01:31:44.005Z,77.86
2018-09-08T01:32:43.970Z,78.23
2018-09-08T01:33:43.951Z,77.95
2018-09-08T01:34:43.915Z,78.52
2018-09-08T01:35:43.900Z,77.95
2018-09-08T01:36:43.864Z,77.15
2018-09-08T01:37:43.843Z,76.71
2018-09-08T01:38:43.815Z,77.15
2018-09-08T01:39:43.784Z,76.81
2018-09-08T01:40:43.761Z,76.71
2018-09-08T01:41:43.731Z,77.00
2018-09-08T01:42:43.713Z,76.81
2018-09-08T01:43:43.685Z,76.81
2018-09-08T01:44:43.676Z,76.77
2018-09-08T01:45:43.638Z,76.57
2018-09-08T01:46:43.603Z,76.86
2018-09-08T01:47:43.579Z,77.19
2018-09-08T01:48:43.549Z,76.96
2018-09-08T01:49:43.521Z,76.81
2018-09-08T01:50:43.505Z,76.77
2018-09-08T01:51:43.477Z,76.90
2018-09-08T01:52:43.442Z,77.67
2018-09-08T01:53:43.417Z,76.96
2018-09-08T01:54:43.395Z,77.15
2018-09-08T01:55:43.371Z,76.81
2018-09-08T01:56:43.341Z,76.90
2018-09-08T01:57:43.315Z,77.67
2018-09-08T01:58:43.289Z,77.15
2018-09-08T01:59:43.265Z,76.20
2018-09-08T02:00:43.247Z,75.76
2018-09-08T02:01:43.212Z,75.85
2018-09-08T02:02:43.183Z,76.20
2018-09-08T02:03:43.158Z,75.76
2018-09-08T02:04:43.131Z,75.47
2018-09-08T02:05:43.108Z,75.28
2018-09-08T02:06:43.079Z,74.71
2018-09-08T02:07:43.052Z,75.37
2018-09-08T02:08:43.023Z,74.90
2018-09-08T02:09:43.001Z,74.99
2018-09-08T02:10:42.973Z,75.18
2018-09-08T02:11:42.947Z,74.57
2018-09-08T02:12:42.919Z,74.38
2018-09-08T02:13:42.889Z,73.72
2018-09-08T02:14:42.872Z,73.81
2018-09-08T02:15:42.841Z,73.81
2018-09-08T02:16:42.816Z,72.76
2018-09-08T02:17:42.793Z,73.28
2018-09-08T02:18:42.760Z,73.24
2018-09-08T02:19:42.731Z,73.24
2018-09-08T02:20:42.713Z,72.86
2018-09-08T02:21:42.680Z,72.76
2018-09-08T02:22:42.661Z,73.52
2018-09-08T02:23:42.634Z,73.43
2018-09-08T02:24:42.601Z,73.72
2018-09-08T02:25:42.583Z,73.62
2018-09-08T02:26:42.551Z,73.05
2018-09-08T02:27:42.529Z,72.67
2018-09-08T02:28:42.505Z,72.67
2018-09-08T02:29:42.476Z,72.67
2018-09-08T02:30:42.444Z,71.33
2018-09-08T02:31:42.415Z,71.04
2018-09-08T02:32:42.398Z,71.43
2018-09-08T02:33:42.364Z,72.00
2018-09-08T02:34:42.347Z,72.19
2018-09-08T02:35:42.309Z,71.04
2018-09-08T02:36:42.293Z,72.48
2018-09-08T02:37:42.265Z,72.19
2018-09-08T02:38:42.244Z,71.52
2018-09-08T02:39:42.214Z,71.04
2018-09-08T02:40:42.178Z,72.28
2018-09-08T02:41:42.156Z,71.27
2018-09-08T02:42:42.134Z,72.09
2018-09-08T02:43:42.107Z,72.09
2018-09-08T02:44:42.079Z,72.57
2018-09-08T02:45:42.054Z,71.33
2018-09-08T02:46:42.026Z,71.43
2018-09-08T02:47:41.995Z,70.86
2018-09-08T02:48:41.976Z,70.28
2018-09-08T02:49:41.947Z,70.47
2018-09-08T02:50:41.926Z,70.28
2018-09-08T02:51:41.901Z,70.47
2018-09-08T02:52:41.868Z,70.19
2018-09-08T02:53:41.840Z,70.28
2018-09-08T02:54:41.819Z,70.76
2018-09-08T02:55:41.790Z,71.23
2018-09-08T02:56:41.762Z,70.47
2018-09-08T02:57:41.739Z,70.76
2018-09-08T02:58:41.708Z,70.47
2018-09-08T02:59:41.679Z,70.57
2018-09-08T03:00:41.656Z,70.19
2018-09-08T03:01:41.627Z,70.19
2018-09-08T03:02:41.609Z,70.38
2018-09-08T03:03:41.584Z,69.90
2018-09-08T03:04:41.548Z,70.28
2018-09-08T03:05:41.535Z,69.62
2018-09-08T03:06:41.500Z,70.09
2018-09-08T03:07:41.474Z,70.76
2018-09-08T03:08:41.451Z,70.47
2018-09-08T03:09:41.416Z,70.38
2018-09-08T03:10:41.401Z,69.81
2018-09-08T03:11:41.365Z,70.28
2018-09-08T03:12:41.342Z,70.28
2018-09-08T03:13:41.317Z,70.47
2018-09-08T03:14:41.289Z,69.71
2018-09-08T03:15:41.259Z,70.28
2018-09-08T03:16:41.232Z,70.38
2018-09-08T03:17:41.214Z,69.81
2018-09-08T03:18:41.178Z,70.28
2018-09-08T03:19:41.153Z,70.76
2018-09-08T03:20:41.133Z,70.19
2018-09-08T03:21:41.105Z,69.81
2018-09-08T03:22:41.084Z,70.28
2018-09-08T03:23:41.052Z,70.28
2018-09-08T03:24:41.026Z,69.62
2018-09-08T03:25:41.002Z,70.47
2018-09-08T03:26:40.966Z,69.71
2018-09-08T03:27:40.941Z,69.62
2018-09-08T03:28:40.924Z,68.95
2018-09-08T03:29:40.894Z,68.28
2018-09-08T03:30:40.865Z,68.76
2018-09-08T03:31:40.837Z,67.80
2018-09-08T03:32:40.854Z,68.28
2018-09-08T03:33:40.789Z,67.80
2018-09-08T03:34:40.761Z,67.33
2018-09-08T03:35:40.736Z,67.52
2018-09-08T03:36:40.709Z,68.38
2018-09-08T03:37:40.687Z,68.38
2018-09-08T03:38:40.656Z,68.76
2018-09-08T03:39:40.632Z,67.90
2018-09-08T03:40:40.606Z,67.04
2018-09-08T03:41:40.577Z,67.04
2018-09-08T03:42:40.548Z,66.66
2018-09-08T03:43:40.525Z,66.85
2018-09-08T03:44:40.492Z,66.75
2018-09-08T03:45:40.469Z,66.18
2018-09-08T03:46:40.445Z,66.18
2018-09-08T03:47:40.424Z,65.33
2018-09-08T03:48:40.392Z,65.13
2018-09-08T03:49:40.369Z,65.70
2018-09-08T03:50:40.334Z,65.89
2018-09-08T03:51:40.308Z,64.56
2018-09-08T03:52:40.289Z,65.13
2018-09-08T03:53:40.254Z,65.23
2018-09-08T03:54:40.236Z,64.56
2018-09-08T03:55:40.211Z,63.89
2018-09-08T03:56:40.177Z,63.89
2018-09-08T03:57:40.157Z,63.70
2018-09-08T03:58:40.126Z,63.89
2018-09-08T03:59:40.099Z,63.13
2018-09-08T04:00:40.078Z,62.08
2018-09-08T04:01:40.045Z,62.46
2018-09-08T04:02:40.026Z,61.70
2018-09-08T04:03:39.990Z,62.18
2018-09-08T04:04:39.968Z,62.65
2018-09-08T04:05:39.977Z,63.04
2018-09-08T04:06:39.914Z,61.99
2018-09-08T04:07:39.897Z,62.27
2018-09-08T04:08:39.860Z,62.37
2018-09-08T04:09:39.837Z,62.56
2018-09-08T04:10:39.810Z,62.18
2018-09-08T04:11:39.788Z,61.80
2018-09-08T04:12:39.755Z,62.27
2018-09-08T04:13:39.728Z,62.46
2018-09-08T04:14:39.708Z,61.04
2018-09-08T04:15:39.681Z,61.04
2018-09-08T04:16:39.647Z,60.65
2018-09-08T04:17:39.627Z,60.17
2018-09-08T04:18:39.600Z,60.17
2018-09-08T04:19:39.571Z,60.17
2018-09-08T04:20:39.541Z,60.17
2018-09-08T04:21:39.523Z,59.60
2018-09-08T04:22:39.489Z,59.79
2018-09-08T04:23:39.463Z,59.41
2018-09-08T04:24:39.447Z,60.08
2018-09-08T04:25:39.417Z,59.22
2018-09-08T04:26:39.391Z,59.12
2018-09-08T04:27:39.365Z,59.03
2018-09-08T04:28:39.333Z,58.07
2018-09-08T04:29:39.397Z,58.65
2018-09-08T04:30:39.282Z,57.70
2018-09-08T04:31:39.258Z,58.26
2018-09-08T04:32:39.228Z,57.31
2018-09-08T04:33:39.199Z,57.60
2018-09-08T04:34:39.182Z,57.89
2018-09-08T04:35:39.146Z,57.98
2018-09-08T04:36:39.122Z,57.60
2018-09-08T04:37:39.102Z,57.79
2018-09-08T04:38:39.072Z,58.07
2018-09-08T04:39:39.047Z,58.17
2018-09-08T04:40:39.020Z,57.98
2018-09-08T04:41:38.996Z,57.12
2018-09-08T04:42:38.967Z,57.03
2018-09-08T04:43:38.937Z,57.41
2018-09-08T04:44:38.915Z,56.36
2018-09-08T04:45:38.881Z,57.22
2018-09-08T04:46:38.864Z,56.36
2018-09-08T04:47:38.837Z,56.46
2018-09-08T04:48:38.802Z,56.07
2018-09-08T04:49:38.784Z,56.17
2018-09-08T04:50:38.749Z,55.88
2018-09-08T04:51:38.733Z,55.50
2018-09-08T04:52:38.698Z,55.12
2018-09-08T04:53:38.680Z,54.74
2018-09-08T04:54:38.649Z,54.07
2018-09-08T04:55:38.620Z,53.97
2018-09-08T04:56:38.601Z,54.17
2018-09-08T04:57:38.569Z,52.92
2018-09-08T04:58:38.541Z,53.88
2018-09-08T04:59:38.549Z,52.64
2018-09-08T05:00:38.492Z,53.21
2018-09-08T05:01:38.461Z,53.97
2018-09-08T05:02:38.441Z,53.78
2018-09-08T05:03:38.413Z,52.55
2018-09-08T05:04:38.382Z,52.83
2018-09-08T05:05:38.359Z,53.97
2018-09-08T05:06:38.379Z,52.73
2018-09-08T05:07:38.307Z,52.16
2018-09-08T05:08:38.317Z,52.45
2018-09-08T05:09:38.284Z,51.50
2018-09-08T05:10:38.224Z,52.64
2018-09-08T05:11:38.200Z,52.16
2018-09-08T05:12:38.177Z,52.36
2018-09-08T05:13:38.143Z,52.26
2018-09-08T05:14:38.124Z,51.97
2018-09-08T05:15:38.170Z,51.50
2018-09-08T05:16:38.070Z,50.73
2018-09-08T05:17:38.044Z,51.02
2018-09-08T05:18:38.882Z,50.63
2018-09-08T05:19:37.994Z,50.83
2018-09-08T05:20:37.972Z,50.83
2018-09-08T05:21:37.939Z,50.73
2018-09-08T05:22:37.907Z,50.92
2018-09-08T05:23:37.879Z,51.12
2018-09-08T05:24:37.851Z,52.07
2018-09-08T05:25:37.828Z,51.02
2018-09-08T05:26:37.804Z,51.31
2018-09-08T05:27:37.776Z,51.21
2018-09-08T05:28:37.769Z,51.31
2018-09-08T05:29:37.724Z,51.21
2018-09-08T05:30:37.694Z,51.31
2018-09-08T05:31:37.675Z,51.97
2018-09-08T05:32:37.640Z,51.59
2018-09-08T05:33:37.615Z,51.88
2018-09-08T05:34:37.592Z,51.40
2018-09-08T05:35:37.572Z,51.31
2018-09-08T05:36:37.559Z,50.63
2018-09-08T05:37:37.509Z,49.78
2018-09-08T05:38:37.490Z,49.87
2018-09-08T05:39:37.459Z,49.78
2018-09-08T05:40:37.437Z,49.97
2018-09-08T05:41:37.402Z,49.49
2018-09-08T05:42:37.383Z,49.49
2018-09-08T05:43:37.351Z,49.21
2018-09-08T05:44:37.327Z,49.49
2018-09-08T05:45:37.304Z,49.49
2018-09-08T05:46:37.271Z,49.97
2018-09-08T05:47:37.251Z,49.78
2018-09-08T05:48:37.217Z,49.78
2018-09-08T05:49:37.193Z,50.35
2018-09-08T05:50:37.177Z,50.16
2018-09-08T05:51:37.142Z,49.30
2018-09-08T05:52:37.115Z,49.11
2018-09-08T05:53:37.092Z,49.30
2018-09-08T05:54:37.059Z,49.30
2018-09-08T05:55:37.040Z,49.87
2018-09-08T05:56:37.006Z,49.40
2018-09-08T05:57:36.983Z,49.78
2018-09-08T05:58:37.006Z,49.40
2018-09-08T05:59:36.932Z,49.87
2018-09-08T06:00:36.907Z,49.59
2018-09-08T06:01:36.879Z,49.78
2018-09-08T06:02:36.934Z,49.68
2018-09-08T06:03:36.844Z,50.26
2018-09-08T06:04:36.794Z,50.35
2018-09-08T06:05:36.776Z,50.26
2018-09-08T06:06:36.744Z,49.78
2018-09-08T06:07:36.715Z,49.90
2018-09-08T06:08:36.696Z,49.78
2018-09-08T06:09:36.663Z,49.30
2018-09-08T06:10:36.644Z,50.57
2018-09-08T06:11:36.614Z,49.71
2018-09-08T06:12:36.584Z,49.52
2018-09-08T06:13:36.582Z,49.04
2018-09-08T06:14:36.533Z,49.52
2018-09-08T06:15:36.505Z,48.66
2018-09-08T06:16:36.481Z,48.75
2018-09-08T06:17:36.461Z,48.37
2018-09-08T06:18:36.430Z,49.23
2018-09-08T06:19:36.449Z,49.52
2018-09-08T06:20:36.373Z,50.47
2018-09-08T06:21:36.351Z,50.38
2018-09-08T06:22:36.321Z,51.23
2018-09-08T06:23:36.301Z,50.67
2018-09-08T06:24:36.328Z,51.14
2018-09-08T06:25:36.280Z,51.43
2018-09-08T06:26:36.215Z,52.09
2018-09-08T06:27:36.192Z,54.19
2018-09-08T06:28:36.287Z,53.72
2018-09-08T06:29:36.139Z,52.76
2018-09-08T06:30:36.114Z,54.03
2018-09-08T06:31:36.141Z,53.62
2018-09-08T06:32:36.056Z,53.27
2018-09-08T06:33:36.034Z,54.99
2018-09-08T06:34:36.006Z,55.18
2018-09-08T06:35:35.982Z,57.37
2018-09-08T06:36:35.955Z,56.13
2018-09-08T06:37:35.932Z,57.18
2018-09-08T06:38:35.898Z,57.09
2018-09-08T06:39:35.869Z,56.13
2018-09-08T06:40:35.852Z,55.36
2018-09-08T06:41:35.825Z,56.04
2018-09-08T06:42:35.795Z,56.32
2018-09-08T06:43:35.770Z,55.94
2018-09-08T06:44:35.747Z,58.33
2018-09-08T06:45:35.713Z,57.46
2018-09-08T06:46:35.694Z,57.56
2018-09-08T06:47:35.662Z,57.28
2018-09-08T06:48:35.640Z,57.18
2018-09-08T06:49:35.616Z,57.09
2018-09-08T06:50:35.585Z,58.64
2018-09-08T06:51:35.562Z,58.93
2018-09-08T06:52:35.530Z,59.66
2018-09-08T06:53:35.511Z,58.23
2018-09-08T06:54:35.486Z,58.64
2018-09-08T06:55:35.452Z,57.87
2018-09-08T06:56:35.427Z,58.61
2018-09-08T06:57:35.399Z,58.07
2018-09-08T06:58:35.380Z,58.83
2018-09-08T06:59:35.367Z,58.83
2018-09-08T07:00:35.324Z,58.64
2018-09-08T07:01:35.294Z,58.73
2018-09-08T07:02:35.282Z,60.64
2018-09-08T07:03:35.248Z,59.69
2018-09-08T07:04:35.213Z,59.59
2018-09-08T07:05:35.191Z,60.55
2018-09-08T07:06:35.171Z,59.31
2018-09-08T07:07:35.139Z,60.07
2018-09-08T07:08:35.111Z,60.46
2018-09-08T07:09:35.089Z,60.93
2018-09-08T07:10:35.066Z,60.27
2018-09-08T07:11:35.048Z,59.98
2018-09-08T07:12:35.006Z,59.78
2018-09-08T07:13:34.981Z,59.98
2018-09-08T07:14:34.959Z,59.59
2018-09-08T07:15:34.933Z,58.26
2018-09-08T07:16:34.897Z,59.98
2018-09-08T07:17:34.880Z,58.86
2018-09-08T07:18:34.855Z,59.63
2018-09-08T07:19:34.825Z,59.34
2018-09-08T07:20:34.797Z,59.81
2018-09-08T07:21:34.802Z,58.95
2018-09-08T07:22:34.824Z,58.58
2018-09-08T07:23:34.746Z,59.72
2018-09-08T07:24:34.694Z,61.72
2018-09-08T07:25:34.666Z,62.49
2018-09-08T07:26:34.643Z,62.40
2018-09-08T07:27:34.612Z,62.21
2018-09-08T07:28:34.588Z,63.83
2018-09-08T07:29:34.567Z,62.87
2018-09-08T07:30:34.543Z,62.40
2018-09-08T07:31:34.509Z,63.16
2018-09-08T07:32:34.489Z,62.62
2018-09-08T07:33:34.464Z,62.52
2018-09-08T07:34:34.434Z,62.62
2018-09-08T07:35:34.411Z,65.11
2018-09-08T07:36:34.376Z,64.05
2018-09-08T07:37:34.360Z,63.86
2018-09-08T07:38:34.330Z,63.57
2018-09-08T07:39:34.304Z,65.30
2018-09-08T07:40:34.277Z,67.02
2018-09-08T07:41:34.247Z,66.73
2018-09-08T07:42:34.228Z,66.92
2018-09-08T07:43:34.202Z,67.78
2018-09-08T07:44:34.177Z,66.44
2018-09-08T07:45:34.151Z,67.11
2018-09-08T07:46:34.122Z,69.98
2018-09-08T07:47:34.103Z,67.78
2018-09-08T07:48:34.066Z,66.83
2018-09-08T07:49:34.046Z,66.92
2018-09-08T07:50:34.013Z,68.16
2018-09-08T07:51:33.985Z,67.78
2018-09-08T07:52:33.970Z,69.31
2018-09-08T07:53:33.940Z,67.69
2018-09-08T07:54:33.927Z,67.97
2018-09-08T07:55:33.889Z,70.11
2018-09-08T07:56:33.856Z,70.27
2018-09-08T07:57:33.837Z,69.98
2018-09-08T07:58:33.813Z,68.58
2018-09-08T07:59:33.780Z,67.82
2018-09-08T08:00:33.754Z,66.28
2018-09-08T08:01:33.732Z,66.47
2018-09-08T08:02:33.708Z,67.05
2018-09-08T08:03:33.674Z,66.86
2018-09-08T08:04:33.681Z,66.96
2018-09-08T08:05:33.621Z,71.55
2018-09-08T08:06:33.639Z,70.40
2018-09-08T08:07:33.579Z,72.50
2018-09-08T08:08:33.548Z,70.78
2018-09-08T08:09:33.520Z,69.73
2018-09-08T08:10:33.503Z,72.02
2018-09-08T08:11:33.470Z,72.69
2018-09-08T08:12:33.442Z,70.87
2018-09-08T08:13:33.444Z,73.08
2018-09-08T08:14:33.436Z,71.93
2018-09-08T08:15:33.364Z,72.63
2018-09-08T08:16:33.340Z,73.59
2018-09-08T08:17:33.312Z,73.59
2018-09-08T08:18:33.289Z,71.45
2018-09-08T08:19:33.261Z,71.11
2018-09-08T08:20:33.298Z,71.58
2018-09-08T08:21:33.217Z,73.11
2018-09-08T08:22:33.183Z,73.97
2018-09-08T08:23:33.168Z,73.79
2018-09-08T08:24:33.139Z,72.16
2018-09-08T08:25:33.109Z,71.20
2018-09-08T08:26:33.085Z,73.11
2018-09-08T08:27:33.060Z,72.25
2018-09-08T08:28:33.034Z,70.72
2018-09-08T08:29:33.002Z,71.30
2018-09-08T08:30:32.979Z,72.06
2018-09-08T08:31:32.949Z,75.16
2018-09-08T08:32:32.932Z,73.40
2018-09-08T08:33:32.902Z,73.82
2018-09-08T08:34:32.878Z,74.87
2018-09-08T08:35:32.846Z,75.93
2018-09-08T08:36:32.827Z,75.54
2018-09-08T08:37:32.797Z,75.07
2018-09-08T08:38:32.770Z,76.89
2018-09-08T08:39:32.750Z,77.36
2018-09-08T08:40:32.718Z,77.94
2018-09-08T08:41:32.706Z,79.08
2018-09-08T08:42:32.669Z,77.46
2018-09-08T08:43:32.640Z,76.79
2018-09-08T08:44:32.613Z,75.64
2018-09-08T08:45:32.587Z,75.07
2018-09-08T08:46:32.569Z,75.26
2018-09-08T08:47:32.544Z,75.16
2018-09-08T08:48:32.507Z,75.93
2018-09-08T08:49:32.492Z,79.18
2018-09-08T08:50:32.465Z,81.77
2018-09-08T08:51:32.433Z,78.51
2018-09-08T08:52:32.503Z,78.80
2018-09-08T08:53:32.380Z,79.28
2018-09-08T08:54:32.360Z,77.75
2018-09-08T08:55:32.333Z,78.32
2018-09-08T08:56:32.305Z,78.70
2018-09-08T08:57:32.284Z,78.99
2018-09-08T08:58:32.264Z,80.04
2018-09-08T08:59:32.238Z,80.71
2018-09-08T09:00:32.200Z,79.18
2018-09-08T09:01:32.176Z,78.55
2018-09-08T09:02:32.148Z,78.93
2018-09-08T09:03:32.131Z,79.22
2018-09-08T09:04:32.100Z,79.41
2018-09-08T09:05:32.080Z,80.18
2018-09-08T09:06:32.048Z,79.03
2018-09-08T09:07:32.032Z,78.27
2018-09-08T09:08:32.461Z,80.47
2018-09-08T09:09:31.975Z,80.85
2018-09-08T09:10:31.945Z,80.08
2018-09-08T09:11:32.142Z,81.43
2018-09-08T09:12:32.005Z,82.62
2018-09-08T09:13:31.936Z,82.67
2018-09-08T09:14:31.841Z,82.96
2018-09-08T09:15:32.205Z,82.09
2018-09-08T09:16:31.797Z,83.53
2018-09-08T09:17:31.765Z,81.62
2018-09-08T09:18:32.254Z,84.53
2018-09-08T09:19:31.716Z,83.86
2018-09-08T09:20:31.695Z,84.39
2018-09-08T09:21:31.671Z,81.37
2018-09-08T09:22:31.637Z,83.38
2018-09-08T09:23:31.617Z,83.38
2018-09-08T09:24:31.962Z,82.23
2018-09-08T09:25:31.569Z,82.32
2018-09-08T09:26:31.536Z,82.42
2018-09-08T09:27:31.510Z,81.95
2018-09-08T09:28:31.491Z,79.93
2018-09-08T09:29:31.463Z,81.66
2018-09-08T09:30:31.438Z,80.03
2018-09-08T09:31:31.413Z,78.82
2018-09-08T09:32:31.382Z,78.05
2018-09-08T09:33:31.357Z,81.31
2018-09-08T09:34:31.340Z,81.98
2018-09-08T09:35:31.304Z,82.37
2018-09-08T09:36:31.288Z,81.02
2018-09-08T09:37:31.259Z,84.86
2018-09-08T09:38:31.232Z,86.97
2018-09-08T09:39:31.208Z,84.48
2018-09-08T09:40:31.182Z,87.16
2018-09-08T09:41:31.151Z,86.01
2018-09-08T09:42:31.135Z,84.19
2018-09-08T09:43:31.104Z,83.04
2018-09-08T09:44:31.085Z,83.04
2018-09-08T09:45:31.059Z,82.75
2018-09-08T09:46:31.025Z,83.14
2018-09-08T09:47:31.004Z,81.89
2018-09-08T09:48:30.976Z,82.37
2018-09-08T09:49:30.977Z,83.52
2018-09-08T09:50:30.925Z,84.86
2018-09-08T09:51:30.901Z,83.42
2018-09-08T09:52:30.878Z,81.60
2018-09-08T09:53:30.850Z,83.37
2018-09-08T09:54:30.828Z,82.21
2018-09-08T09:55:30.804Z,83.27
2018-09-08T09:56:30.772Z,82.98
2018-09-08T09:57:30.754Z,84.04
2018-09-08T09:58:30.721Z,87.98
2018-09-08T09:59:30.698Z,88.35
2018-09-08T10:00:30.677Z,87.26
2018-09-08T10:01:30.644Z,88.02
2018-09-08T10:02:30.630Z,87.35
2018-09-08T10:03:30.602Z,87.07
2018-09-08T10:04:30.567Z,85.63
2018-09-08T10:05:30.545Z,88.79
2018-09-08T10:06:30.532Z,87.64
2018-09-08T10:07:30.501Z,89.75
2018-09-08T10:08:30.471Z,88.79
2018-09-08T10:09:30.445Z,87.35
2018-09-08T10:10:30.417Z,86.30
2018-09-08T10:11:30.396Z,87.01
2018-09-08T10:12:30.367Z,90.28
2018-09-08T10:13:30.345Z,88.17
2018-09-08T10:14:30.316Z,87.78
2018-09-08T10:15:30.297Z,89.41
2018-09-08T10:16:30.262Z,88.93
2018-09-08T10:17:30.246Z,88.65
2018-09-08T10:18:30.213Z,87.49
2018-09-08T10:19:30.190Z,90.28
2018-09-08T10:20:30.170Z,90.99
2018-09-08T10:21:30.139Z,91.96
2018-09-08T10:22:30.115Z,91.76
2018-09-08T10:23:30.147Z,90.99
2018-09-08T10:24:30.066Z,89.75
2018-09-08T10:25:30.062Z,90.90
2018-09-08T10:26:30.151Z,90.13
2018-09-08T10:27:29.991Z,89.46
2018-09-08T10:28:30.253Z,89.84
2018-09-08T10:29:30.270Z,89.02
2018-09-08T10:30:29.933Z,88.16
2018-09-08T10:31:29.889Z,89.98
2018-09-08T10:32:29.862Z,92.67
2018-09-08T10:33:29.837Z,92.57
2018-09-08T10:34:29.820Z,92.29
2018-09-08T10:35:29.792Z,92.00
2018-09-08T10:36:29.757Z,93.15
2018-09-08T10:37:29.737Z,91.42
2018-09-08T10:38:29.717Z,92.29
2018-09-08T10:39:29.692Z,91.13
2018-09-08T10:40:29.672Z,92.77
2018-09-08T10:41:29.639Z,91.04
2018-09-08T10:42:29.612Z,91.81
2018-09-08T10:43:29.587Z,91.61
2018-09-08T10:44:29.570Z,92.19
2018-09-08T10:45:29.536Z,92.38
2018-09-08T10:46:29.518Z,91.61
2018-09-08T10:47:29.491Z,91.42
2018-09-08T10:48:29.462Z,91.23
2018-09-08T10:49:29.442Z,91.13
2018-09-08T10:50:29.410Z,91.13
2018-09-08T10:51:29.390Z,91.71
2018-09-08T10:52:29.361Z,91.81
2018-09-08T10:53:29.339Z,90.41
2018-09-08T10:54:29.311Z,90.31
2018-09-08T10:55:29.286Z,90.41
2018-09-08T10:56:29.265Z,90.12
2018-09-08T10:57:29.237Z,90.12
2018-09-08T10:58:29.213Z,90.31
2018-09-08T10:59:29.187Z,85.71
2018-09-08T11:00:29.164Z,86.85
2018-09-08T11:01:29.180Z,87.53
2018-09-08T11:02:29.291Z,86.38
2018-09-08T11:03:29.094Z,84.26
2018-09-08T11:04:29.060Z,86.09
2018-09-08T11:05:29.039Z,87.05
2018-09-08T11:06:29.012Z,87.62
2018-09-08T11:07:28.982Z,88.97
2018-09-08T11:08:28.989Z,88.10
2018-09-08T11:09:28.980Z,86.38
2018-09-08T11:10:28.918Z,87.72
2018-09-08T11:11:28.886Z,86.09
2018-09-08T11:12:28.862Z,87.53
2018-09-08T11:13:28.835Z,86.57
2018-09-08T11:14:28.814Z,86.47
2018-09-08T11:15:28.826Z,84.94
2018-09-08T11:16:28.764Z,84.41
2018-09-08T11:17:28.743Z,85.18
2018-09-08T11:18:28.708Z,87.05
2018-09-08T11:19:28.691Z,88.35
2018-09-08T11:20:28.662Z,89.60
2018-09-08T11:21:28.635Z,87.10
2018-09-08T11:22:28.620Z,86.47
2018-09-08T11:23:28.592Z,86.47
2018-09-08T11:24:28.561Z,87.34
2018-09-08T11:25:28.536Z,87.43
2018-09-08T11:26:28.510Z,87.53
2018-09-08T11:27:28.490Z,84.36
2018-09-08T11:28:28.467Z,84.17
2018-09-08T11:29:28.435Z,83.25
2018-09-08T11:30:28.430Z,82.96
2018-09-08T11:31:28.386Z,81.32
2018-09-08T11:32:28.368Z,77.96
2018-09-08T11:33:28.342Z,79.60
2018-09-08T11:34:28.321Z,77.67
2018-09-08T11:35:28.292Z,77.29
2018-09-08T11:36:28.260Z,76.42
2018-09-08T11:37:28.247Z,77.19
2018-09-08T11:38:28.261Z,75.27
2018-09-08T11:39:28.186Z,77.76
2018-09-08T11:40:28.163Z,80.46
2018-09-08T11:41:28.143Z,81.71
2018-09-08T11:42:28.112Z,81.71
2018-09-08T11:43:28.090Z,80.65
2018-09-08T11:44:28.067Z,78.92
2018-09-08T11:45:28.045Z,76.71
2018-09-08T11:46:28.017Z,77.29
2018-09-08T11:47:27.991Z,75.17
2018-09-08T11:48:27.966Z,76.61
2018-09-08T11:49:27.949Z,76.42
2018-09-08T11:50:27.918Z,75.94
2018-09-08T11:51:27.889Z,73.73
2018-09-08T11:52:27.871Z,73.54
2018-09-08T11:53:27.837Z,74.21
2018-09-08T11:54:27.822Z,75.37
2018-09-08T11:55:27.795Z,78.34
2018-09-08T11:56:27.763Z,79.50
2018-09-08T11:57:27.748Z,78.15
2018-09-08T11:58:27.714Z,74.11
2018-09-08T11:59:27.974Z,75.84
2018-09-08T12:00:27.672Z,70.65
2018-09-08T12:01:27.649Z,69.89
2018-09-08T12:02:27.623Z,70.46
2018-09-08T12:03:27.589Z,72.38
2018-09-08T12:04:27.577Z,71.52
2018-09-08T12:05:27.545Z,68.83
2018-09-08T12:06:27.557Z,69.60
2018-09-08T12:07:27.496Z,69.98
2018-09-08T12:08:27.471Z,70.27
2018-09-08T12:09:27.449Z,72.19
2018-09-08T12:10:27.419Z,70.27
2018-09-08T12:11:27.394Z,70.52
2018-09-08T12:12:27.375Z,71.61
2018-09-08T12:13:27.342Z,71.19
2018-09-08T12:14:27.321Z,70.33
2018-09-08T12:15:27.313Z,70.90
2018-09-08T12:16:27.269Z,70.43
2018-09-08T12:17:27.245Z,71.29
2018-09-08T12:18:27.224Z,72.34
2018-09-08T12:19:27.199Z,73.50
2018-09-08T12:20:27.173Z,77.29
2018-09-08T12:21:27.152Z,79.79
2018-09-08T12:22:27.122Z,79.60
2018-09-08T12:23:27.098Z,75.94
2018-09-08T12:24:27.070Z,77.38
2018-09-08T12:25:27.043Z,74.11
2018-09-08T12:26:27.026Z,76.04
2018-09-08T12:27:26.999Z,71.71
2018-09-08T12:28:26.967Z,73.06
2018-09-08T12:29:26.945Z,75.94
2018-09-08T12:30:26.962Z,74.25
2018-09-08T12:31:26.898Z,74.02
2018-09-08T12:32:26.936Z,72.90
2018-09-08T12:33:26.849Z,68.67
2018-09-08T12:34:26.829Z,68.63
2018-09-08T12:35:26.799Z,70.98
2018-09-08T12:36:26.774Z,70.68
2018-09-08T12:37:26.749Z,71.55
2018-09-08T12:38:26.722Z,72.80
2018-09-08T12:39:26.697Z,74.82
2018-09-08T12:40:26.676Z,71.26
2018-09-08T12:41:26.647Z,73.28
2018-09-08T12:42:26.626Z,75.21
2018-09-08T12:43:26.600Z,72.84
2018-09-08T12:44:26.573Z,67.83
2018-09-08T12:45:26.552Z,68.09
2018-09-08T12:46:26.532Z,66.78
2018-09-08T12:47:26.498Z,67.93
2018-09-08T12:48:26.471Z,65.05
2018-09-08T12:49:26.451Z,68.13
2018-09-08T12:50:26.433Z,67.55
2018-09-08T12:51:26.405Z,70.15
2018-09-08T12:52:26.373Z,70.92